Time;durP1;ratioP1;P1;durP2;ratioP2;P2;SDS_P1;SDS_P2;PMS_P1;PMS_P2;Temp;Humidity;BMP_temperature;BMP_pressure;BME280_temperature;BME280_humidity;BME280_pressure;Samples;Min_cycle;Max_cycle;Signal;HPM_P1;HPM_P2
2022/11/28 00:07:54;;;;;;;3.58;2.28;;;;;;;;;;20997008;28;20059;-60
2022/11/28 00:17:57;;;;;;;4.40;1.90;;;;;;;;;;20997088;28;20040;-58
2022/11/28 00:27:59;;;;;;;3.85;2.30;;;;;;;;;;20995906;28;20048;-58
2022/11/28 00:38:01;;;;;;;5.03;2.42;;;;;;;;;;20997119;28;20127;-58
2022/11/28 00:48:04;;;;;;;5.75;2.80;;;;;;;;;;20996182;28;20052;-58
2022/11/28 00:58:07;;;;;;;6.75;2.60;;;;;;;;;;20995850;28;20117;-58
2022/11/28 01:08:10;;;;;;;5.03;3.25;;;;;;;;;;20994533;28;20134;-59
2022/11/28 01:18:12;;;;;;;4.40;2.28;;;;;;;;;;21002728;28;20052;-57
2022/11/28 01:28:14;;;;;;;2.45;1.40;;;;;;;;;;21009952;28;20064;-57
2022/11/28 01:38:16;;;;;;;1.48;0.95;;;;;;;;;;21010809;28;20102;-60
2022/11/28 01:48:22;;;;;;;1.20;0.77;;;;;;;;;;21011781;28;20048;-58
2022/11/28 01:58:24;;;;;;;2.55;0.82;;;;;;;;;;21008126;28;20049;-57
2022/11/28 02:08:26;;;;;;;2.30;0.80;;;;;;;;;;21007476;28;20459;-58
2022/11/28 02:18:35;;;;;;;3.55;0.80;;;;;;;;;;21007502;28;20063;-59
2022/11/28 02:28:53;;;;;;;1.85;1.20;;;;;;;;;;21005208;28;20493;-59
2022/11/28 02:39:13;;;;;;;2.45;1.10;;;;;;;;;;21005723;28;20059;-59
2022/11/28 02:49:23;;;;;;;1.48;0.73;;;;;;;;;;21004595;28;20060;-57
2022/11/28 02:59:29;;;;;;;4.63;0.90;;;;;;;;;;21003960;28;20056;-58
2022/11/28 03:09:58;;;;;;;2.63;1.00;;;;;;;;;;21003065;28;20123;-57
2022/11/28 03:20:22;;;;;;;5.00;1.42;;;;;;;;;;21001035;28;20086;-58
2022/11/28 03:30:37;;;;;;;8.70;3.50;;;;;;;;;;21000773;28;20087;-59
2022/11/28 03:40:44;;;;;;;7.80;1.40;;;;;;;;;;20999943;28;20447;-58
2022/11/28 03:50:51;;;;;;;8.80;2.85;;;;;;;;;;20999664;28;20132;-57
2022/11/28 04:01:08;;;;;;;3.53;1.40;;;;;;;;;;20999239;28;20044;-58
2022/11/28 04:11:15;;;;;;;8.00;1.90;;;;;;;;;;20997591;28;20083;-58
2022/11/28 04:21:25;;;;;;;6.22;1.70;;;;;;;;;;20997878;28;20063;-57
2022/11/28 04:31:27;;;;;;;4.60;1.13;;;;;;;;;;20996434;28;20412;-57
2022/11/28 04:41:29;;;;;;;3.10;1.25;;;;;;;;;;20996956;28;20052;-58
2022/11/28 04:51:44;;;;;;;4.43;1.00;;;;;;;;;;20996353;28;20053;-58
2022/11/28 05:01:47;;;;;;;4.10;1.20;;;;;;;;;;20994840;28;20116;-57
2022/11/28 05:11:49;;;;;;;3.58;1.40;;;;;;;;;;20995389;28;20045;-57
2022/11/28 05:21:52;;;;;;;5.45;1.08;;;;;;;;;;20995401;28;20080;-58
2022/11/28 05:31:55;;;;;;;5.03;1.10;;;;;;;;;;20994796;28;20214;-57
2022/11/28 05:41:57;;;;;;;6.15;1.65;;;;;;;;;;20994165;28;20049;-58
2022/11/28 05:51:59;;;;;;;21.02;17.60;;;;;;;;;;20993259;28;20048;-57
2022/11/28 06:02:01;;;;;;;4.07;1.48;;;;;;;;;;20996165;28;20059;-57
2022/11/28 06:12:04;;;;;;;4.53;1.20;;;;;;;;;;21008332;28;20047;-58
2022/11/28 06:22:07;;;;;;;2.50;1.10;;;;;;;;;;21006858;28;20052;-58
2022/11/28 06:32:08;;;;;;;6.15;1.80;;;;;;;;;;21009760;28;20415;-58
2022/11/28 06:42:13;;;;;;;8.45;1.30;;;;;;;;;;21011006;28;20053;-58
2022/11/28 06:52:15;;;;;;;5.60;1.90;;;;;;;;;;21013297;28;20439;-58
2022/11/28 07:02:17;;;;;;;4.10;1.50;;;;;;;;;;21012537;28;20054;-58
2022/11/28 07:12:19;;;;;;;4.30;1.67;;;;;;;;;;21010789;28;20040;-59
2022/11/28 07:22:22;;;;;;;6.47;2.55;;;;;;;;;;21002008;28;20052;-58
2022/11/28 07:32:23;;;;;;;6.57;1.67;;;;;;;;;;21000145;28;20052;-58
2022/11/28 07:42:27;;;;;;;4.78;1.60;;;;;;;;;;20999971;28;20055;-60
2022/11/28 07:52:29;;;;;;;4.80;1.48;;;;;;;;;;20999460;28;20047;-59
2022/11/28 08:02:31;;;;;;;5.38;2.08;;;;;;;;;;20999054;28;20052;-58
2022/11/28 08:12:33;;;;;;;5.53;1.63;;;;;;;;;;20998384;28;20041;-58
2022/11/28 08:22:35;;;;;;;7.53;2.00;;;;;;;;;;20997749;28;20056;-57
2022/11/28 08:32:37;;;;;;;5.13;1.70;;;;;;;;;;20995695;28;20131;-57
2022/11/28 08:42:39;;;;;;;7.32;2.88;;;;;;;;;;20995858;28;20085;-58
2022/11/28 08:52:41;;;;;;;3.13;1.45;;;;;;;;;;20998696;28;20155;-57
2022/11/28 09:02:43;;;;;;;6.55;1.50;;;;;;;;;;20995777;28;20079;-60
2022/11/28 09:12:45;;;;;;;7.72;5.40;;;;;;;;;;20994712;28;20137;-57
2022/11/28 09:22:47;;;;;;;3.58;1.80;;;;;;;;;;20994689;28;20045;-57
2022/11/28 09:32:49;;;;;;;3.05;1.30;;;;;;;;;;20993465;28;20147;-56
2022/11/28 09:42:51;;;;;;;7.53;2.15;;;;;;;;;;21007935;28;20080;-57
2022/11/28 09:53:09;;;;;;;6.75;2.10;;;;;;;;;;21009072;28;20102;-56
2022/11/28 10:03:28;;;;;;;4.55;1.00;;;;;;;;;;21007773;28;20545;-56
2022/11/28 10:13:30;;;;;;;7.22;1.60;;;;;;;;;;21007024;28;20147;-57
2022/11/28 10:23:40;;;;;;;3.88;1.30;;;;;;;;;;21006165;28;20055;-57
2022/11/28 10:33:48;;;;;;;4.07;1.17;;;;;;;;;;21005096;28;20135;-57
2022/11/28 10:43:58;;;;;;;4.07;1.50;;;;;;;;;;21004880;28;20052;-56
2022/11/28 10:54:16;;;;;;;3.30;1.00;;;;;;;;;;21003705;28;20049;-57
2022/11/28 11:04:20;;;;;;;1.95;0.90;;;;;;;;;;21003007;28;20427;-57
2022/11/28 11:14:48;;;;;;;5.25;1.50;;;;;;;;;;21002182;28;20126;-58
2022/11/28 11:25:05;;;;;;;6.70;1.33;;;;;;;;;;20998358;28;20084;-57
2022/11/28 11:35:15;;;;;;;4.40;1.20;;;;;;;;;;21000582;28;20056;-56
2022/11/28 11:45:33;;;;;;;3.80;1.15;;;;;;;;;;20999994;28;20091;-57
2022/11/28 11:55:55;;;;;;;5.50;1.48;;;;;;;;;;20998838;28;20147;-57
2022/11/28 12:05:59;;;;;;;8.30;1.20;;;;;;;;;;20997173;28;20070;-56
2022/11/28 12:16:10;;;;;;;5.33;1.50;;;;;;;;;;20998776;28;20052;-56
2022/11/28 12:26:20;;;;;;;4.55;1.50;;;;;;;;;;20997177;28;20048;-56
2022/11/28 12:36:37;;;;;;;5.28;0.80;;;;;;;;;;20996001;28;20149;-56
2022/11/28 12:46:45;;;;;;;2.72;0.80;;;;;;;;;;20996329;28;20067;-56
2022/11/28 12:57:02;;;;;;;2.90;1.10;;;;;;;;;;20994892;28;20095;-55
2022/11/28 13:07:20;;;;;;;3.63;1.10;;;;;;;;;;20994875;28;20090;-57
2022/11/28 13:17:23;;;;;;;4.70;1.05;;;;;;;;;;21008943;28;20394;-57
2022/11/28 13:27:32;;;;;;;2.55;1.00;;;;;;;;;;21010494;28;20442;-57
2022/11/28 13:37:44;;;;;;;2.85;0.90;;;;;;;;;;21009022;28;20060;-57
2022/11/28 13:47:47;;;;;;;4.80;1.20;;;;;;;;;;21009322;28;20057;-57
2022/11/28 13:57:49;;;;;;;2.75;0.95;;;;;;;;;;21009114;28;20510;-57
2022/11/28 14:07:51;;;;;;;2.67;1.30;;;;;;;;;;21007595;28;20052;-57
2022/11/28 14:17:59;;;;;;;5.18;2.20;;;;;;;;;;21006632;28;20102;-58
2022/11/28 14:28:02;;;;;;;1.83;1.05;;;;;;;;;;21004976;28;20451;-57
2022/11/28 14:38:24;;;;;;;5.45;2.40;;;;;;;;;;21004791;28;20047;-58
2022/11/28 14:48:29;;;;;;;4.20;2.05;;;;;;;;;;21004897;28;20056;-57
2022/11/28 14:58:31;;;;;;;;;;;;;;;;;;21004764;28;20097;-56
2022/11/28 15:08:53;;;;;;;3.65;2.00;;;;;;;;;;21002461;28;19938;-58
2022/11/28 15:19:04;;;;;;;5.50;1.20;;;;;;;;;;21001717;28;20056;-57
2022/11/28 15:29:23;;;;;;;2.85;0.90;;;;;;;;;;21000266;28;20059;-58
2022/11/28 15:39:27;;;;;;;6.55;1.70;;;;;;;;;;21000297;28;20053;-58
2022/11/28 15:49:31;;;;;;;3.50;1.00;;;;;;;;;;21000551;28;20130;-58
2022/11/28 15:59:33;;;;;;;3.85;1.42;;;;;;;;;;21000224;28;20447;-58
2022/11/28 16:09:35;;;;;;;8.10;2.42;;;;;;;;;;20998584;28;20088;-57
2022/11/28 16:19:37;;;;;;;7.25;2.42;;;;;;;;;;20997265;28;20447;-58
2022/11/28 16:29:44;;;;;;;6.43;2.35;;;;;;;;;;20996294;28;20504;-58
2022/11/28 16:39:46;;;;;;;4.25;1.67;;;;;;;;;;20996103;28;20052;-59
2022/11/28 16:50:03;;;;;;;9.35;4.35;;;;;;;;;;20995168;28;20409;-56
2022/11/28 17:00:05;;;;;;;5.25;2.50;;;;;;;;;;20995326;28;20554;-58
2022/11/28 17:10:07;;;;;;;8.18;3.47;;;;;;;;;;20994853;28;20113;-58
2022/11/28 17:20:11;;;;;;;4.80;1.90;;;;;;;;;;20995063;28;20412;-58
2022/11/28 17:30:14;;;;;;;7.05;3.30;;;;;;;;;;20993568;28;20147;-58
2022/11/28 17:40:35;;;;;;;11.60;4.60;;;;;;;;;;20994378;28;20052;-58
2022/11/28 17:50:37;;;;;;;7.55;3.03;;;;;;;;;;20992192;28;20057;-57
2022/11/28 18:00:39;;;;;;;9.25;3.50;;;;;;;;;;20998593;28;20052;-58
2022/11/28 18:10:41;;;;;;;5.50;2.83;;;;;;;;;;21007036;28;20091;-58
2022/11/28 18:20:43;;;;;;;9.15;2.97;;;;;;;;;;21007132;28;20052;-59
2022/11/28 18:30:46;;;;;;;8.20;2.65;;;;;;;;;;21005007;28;20056;-58
2022/11/28 18:40:48;;;;;;;7.13;2.63;;;;;;;;;;21005199;28;20071;-59
2022/11/28 18:50:50;;;;;;;17.30;6.97;;;;;;;;;;21005287;28;20051;-59
2022/11/28 19:00:52;;;;;;;23.52;9.95;;;;;;;;;;21004383;28;20051;-59
2022/11/28 19:10:54;;;;;;;8.10;3.70;;;;;;;;;;21000879;28;20049;-58
2022/11/28 19:20:56;;;;;;;11.50;5.97;;;;;;;;;;21002268;28;20082;-59
2022/11/28 19:31:04;;;;;;;34.22;13.25;;;;;;;;;;21000901;28;20364;-59
2022/11/28 19:41:11;;;;;;;8.48;3.50;;;;;;;;;;21000842;28;20150;-59
2022/11/28 19:51:14;;;;;;;7.25;2.42;;;;;;;;;;20999309;28;20090;-58
2022/11/28 20:01:18;;;;;;;6.65;2.90;;;;;;;;;;20999520;28;20477;-59
2022/11/28 20:11:22;;;;;;;6.57;3.15;;;;;;;;;;20999027;28;20098;-59
2022/11/28 20:21:24;;;;;;;8.13;4.28;;;;;;;;;;20995928;28;20049;-59
2022/11/28 20:31:32;;;;;;;9.93;5.15;;;;;;;;;;20996477;28;20455;-60
2022/11/28 20:41:34;;;;;;;12.30;4.88;;;;;;;;;;20996821;28;20185;-59
2022/11/28 20:51:36;;;;;;;13.60;8.60;;;;;;;;;;20995199;28;20082;-59
2022/11/28 21:01:39;;;;;;;59.90;28.58;;;;;;;;;;20995621;28;20052;-59
2022/11/28 21:11:41;;;;;;;30.30;15.82;;;;;;;;;;20995659;28;20048;-60
2022/11/28 21:21:43;;;;;;;22.23;12.13;;;;;;;;;;20994068;28;20084;-59
2022/11/28 21:31:45;;;;;;;12.50;5.63;;;;;;;;;;20996114;28;20052;-58
2022/11/28 21:41:49;;;;;;;8.07;5.30;;;;;;;;;;21009822;28;20049;-59
2022/11/28 21:51:51;;;;;;;11.73;6.85;;;;;;;;;;21010054;28;20040;-59
2022/11/28 22:01:54;;;;;;;15.93;7.40;;;;;;;;;;21008356;28;20049;-60
2022/11/28 22:11:56;;;;;;;9.43;4.18;;;;;;;;;;21007670;28;20052;-59
2022/11/28 22:21:58;;;;;;;9.25;4.55;;;;;;;;;;21007383;28;20499;-59
2022/11/28 22:32:00;;;;;;;9.23;4.03;;;;;;;;;;21005548;28;20052;-60
2022/11/28 22:42:02;;;;;;;12.30;4.60;;;;;;;;;;21005767;28;20048;-59
2022/11/28 22:52:04;;;;;;;10.40;3.58;;;;;;;;;;21007031;28;20045;-58
2022/11/28 23:02:07;;;;;;;12.85;4.15;;;;;;;;;;21004335;28;20048;-60
2022/11/28 23:12:09;;;;;;;10.50;3.20;;;;;;;;;;21003079;28;20049;-60
2022/11/28 23:22:11;;;;;;;8.38;3.33;;;;;;;;;;21002148;28;20084;-58
2022/11/28 23:32:13;;;;;;;7.47;2.78;;;;;;;;;;21001005;28;20454;-59
2022/11/28 23:42:15;;;;;;;9.35;2.80;;;;;;;;;;21000885;28;20489;-59
2022/11/28 23:52:16;;;;;;;7.28;3.40;;;;;;;;;;20999931;28;20052;-59
